createdAt,value
2018-12-26T00:01:07.154Z,12.17
2018-12-26T00:03:36.555Z,12.80
2018-12-26T00:06:05.888Z,11.77
2018-12-26T00:08:35.234Z,12.47
2018-12-26T00:11:04.554Z,11.37
2018-12-26T00:13:33.907Z,10.87
2018-12-26T00:16:02.529Z,11.70
2018-12-26T00:18:31.183Z,11.47
2018-12-26T00:20:59.691Z,13.57
2018-12-26T00:23:29.009Z,13.33
2018-12-26T00:26:01.794Z,10.97
2018-12-26T00:28:47.630Z,9.07
2018-12-26T00:31:16.950Z,10.37
2018-12-26T00:33:46.277Z,12.43
2018-12-26T00:36:14.784Z,11.40
2018-12-26T00:38:43.306Z,8.00
2018-12-26T00:41:12.619Z,8.80
2018-12-26T00:43:41.240Z,9.97
2018-12-26T00:46:10.556Z,10.97
2018-12-26T00:48:39.993Z,13.23
2018-12-26T00:51:08.532Z,10.27
2018-12-26T00:53:37.865Z,9.47
2018-12-26T00:56:10.589Z,9.30
2018-12-26T00:58:56.403Z,14.60
2018-12-26T01:01:24.916Z,8.17
2018-12-26T01:03:53.562Z,10.87
2018-12-26T01:06:22.893Z,11.83
2018-12-26T01:08:52.759Z,9.87
2018-12-26T01:11:22.094Z,10.63
2018-12-26T01:13:51.422Z,8.10
2018-12-26T01:16:20.729Z,8.93
2018-12-26T01:18:50.055Z,10.03
2018-12-26T01:21:19.396Z,9.87
2018-12-26T01:23:48.723Z,10.00
2018-12-26T01:26:19.271Z,10.10
2018-12-26T01:29:06.398Z,9.33
2018-12-26T01:31:34.932Z,8.43
2018-12-26T01:34:04.250Z,8.53
2018-12-26T01:36:44.136Z,8.40
2018-12-26T01:39:13.446Z,9.10
2018-12-26T01:41:42.772Z,10.30
2018-12-26T01:44:12.099Z,8.57
2018-12-26T01:46:41.404Z,12.07
2018-12-26T01:49:10.739Z,9.80
2018-12-26T01:51:40.067Z,10.13
2018-12-26T01:54:08.587Z,11.13
2018-12-26T01:56:37.106Z,8.67
2018-12-26T01:59:07.024Z,8.13
2018-12-26T02:01:55.691Z,9.77
2018-12-26T02:04:25.026Z,8.77
2018-12-26T02:06:54.381Z,8.40
2018-12-26T02:09:23.713Z,10.87
2018-12-26T02:11:53.042Z,9.80
2018-12-26T02:14:22.440Z,8.80
2018-12-26T02:16:51.879Z,7.73
2018-12-26T02:19:21.366Z,8.83
2018-12-26T02:21:49.894Z,8.13
2018-12-26T02:24:18.409Z,12.87
2018-12-26T02:26:47.722Z,8.57
2018-12-26T02:29:17.068Z,11.67
2018-12-26T02:31:46.399Z,7.03
2018-12-26T02:34:15.705Z,9.63
2018-12-26T02:36:45.027Z,8.47
2018-12-26T02:39:14.334Z,8.40
2018-12-26T02:41:43.686Z,8.10
2018-12-26T02:44:12.098Z,8.10
2018-12-26T02:46:40.635Z,9.00
2018-12-26T02:49:09.963Z,8.37
2018-12-26T02:51:39.273Z,8.67
2018-12-26T02:54:08.620Z,7.80
2018-12-26T02:56:46.141Z,8.30
2018-12-26T02:59:27.282Z,8.80
2018-12-26T03:01:56.593Z,8.60
2018-12-26T03:04:25.909Z,7.93
2018-12-26T03:06:55.244Z,8.43
2018-12-26T03:09:24.618Z,8.77
2018-12-26T03:11:53.921Z,7.70
2018-12-26T03:14:22.437Z,7.63
2018-12-26T03:16:51.783Z,10.17
2018-12-26T03:19:21.110Z,7.93
2018-12-26T03:21:50.426Z,10.77
2018-12-26T03:24:19.764Z,9.73
2018-12-26T03:26:56.029Z,10.97
2018-12-26T03:29:38.365Z,7.87
2018-12-26T03:32:07.690Z,7.93
2018-12-26T03:34:37.022Z,10.73
2018-12-26T03:37:05.560Z,9.50
2018-12-26T03:39:34.164Z,9.17
2018-12-26T03:42:03.614Z,10.13
2018-12-26T03:50:37.410Z,10.23
2018-12-26T03:53:06.719Z,9.00
2018-12-26T03:55:35.233Z,12.17
2018-12-26T03:58:04.564Z,12.20
2018-12-26T04:00:34.010Z,12.07
2018-12-26T04:03:03.351Z,9.97
2018-12-26T04:05:32.656Z,10.27
2018-12-26T04:08:01.967Z,10.07
2018-12-26T04:10:31.372Z,9.37
2018-12-26T04:13:00.696Z,9.67
2018-12-26T04:15:29.515Z,9.07
2018-12-26T04:17:57.959Z,8.93
2018-12-26T04:20:27.468Z,8.63
2018-12-26T04:22:57.234Z,9.60
2018-12-26T04:28:09.622Z,10.10
2018-12-26T04:30:38.960Z,12.43
2018-12-26T04:33:07.495Z,10.47
2018-12-26T04:35:36.827Z,11.93
2018-12-26T04:38:06.158Z,10.47
2018-12-26T04:40:35.495Z,9.10
2018-12-26T04:43:04.821Z,8.77
2018-12-26T04:45:34.149Z,9.30
2018-12-26T04:48:03.526Z,8.37
2018-12-26T04:50:32.837Z,9.33
2018-12-26T04:53:02.180Z,10.13
2018-12-26T04:55:30.757Z,11.13
2018-12-26T04:57:59.183Z,12.77
2018-12-26T05:00:31.070Z,9.20
2018-12-26T05:03:00.374Z,8.27
2018-12-26T05:05:29.902Z,10.70
2018-12-26T05:07:58.411Z,10.77
2018-12-26T05:10:27.717Z,13.37
2018-12-26T05:12:57.143Z,11.40
2018-12-26T05:15:26.467Z,10.30
2018-12-26T05:17:55.776Z,12.53
2018-12-26T05:20:25.189Z,9.80
2018-12-26T05:22:54.497Z,12.20
2018-12-26T05:25:23.025Z,18.50
2018-12-26T05:27:51.468Z,14.37
2018-12-26T05:30:20.798Z,15.60
2018-12-26T05:32:50.121Z,13.23
2018-12-26T05:35:19.477Z,16.30
2018-12-26T05:37:48.801Z,16.27
2018-12-26T05:40:18.137Z,15.87
2018-12-26T05:42:47.465Z,16.83
2018-12-26T05:45:16.783Z,18.73
2018-12-26T05:47:45.408Z,17.47
2018-12-26T05:50:13.825Z,20.57
2018-12-26T05:52:43.145Z,22.23
2018-12-26T05:55:12.459Z,20.23
2018-12-26T05:57:42.864Z,20.33
2018-12-26T06:00:30.988Z,20.63
2018-12-26T06:03:00.306Z,22.77
2018-12-26T06:05:29.641Z,22.03
2018-12-26T06:07:58.985Z,24.27
2018-12-26T06:10:28.303Z,25.87
2018-12-26T06:12:56.826Z,24.43
2018-12-26T06:15:26.145Z,25.10
2018-12-26T06:17:55.461Z,28.17
2018-12-26T06:20:24.802Z,28.30
2018-12-26T06:22:54.129Z,24.67
2018-12-26T06:25:23.445Z,28.37
2018-12-26T06:27:52.874Z,25.00
2018-12-26T06:30:22.193Z,18.03
2018-12-26T06:32:51.852Z,15.50
2018-12-26T06:35:21.166Z,15.77
2018-12-26T06:37:50.477Z,16.77
2018-12-26T06:40:19.798Z,16.43
2018-12-26T06:42:48.307Z,14.50
2018-12-26T06:45:16.856Z,16.63
2018-12-26T06:47:46.161Z,18.70
2018-12-26T06:50:15.507Z,17.83
2018-12-26T06:52:44.824Z,15.27
2018-12-26T06:55:14.150Z,15.73
2018-12-26T06:57:43.478Z,16.97
2018-12-26T07:00:12.911Z,17.77
2018-12-26T07:02:42.232Z,17.03
2018-12-26T07:05:10.649Z,16.33
2018-12-26T07:07:39.178Z,14.43
2018-12-26T07:10:07.806Z,16.97
2018-12-26T07:12:37.133Z,15.20
2018-12-26T07:15:06.714Z,14.53
2018-12-26T07:17:36.109Z,11.07
2018-12-26T07:20:05.515Z,12.13
2018-12-26T07:22:34.838Z,15.83
2018-12-26T07:25:04.325Z,14.50
2018-12-26T07:27:33.657Z,16.90
2018-12-26T07:30:02.209Z,14.43
2018-12-26T07:32:30.726Z,19.33
2018-12-26T07:34:59.326Z,20.57
2018-12-26T07:37:28.651Z,16.10
2018-12-26T07:39:57.957Z,15.43
2018-12-26T07:42:27.293Z,15.73
2018-12-26T07:44:56.607Z,13.37
2018-12-26T07:47:25.957Z,13.83
2018-12-26T07:49:54.526Z,11.43
2018-12-26T07:52:23.858Z,14.97
2018-12-26T07:54:53.173Z,14.30
2018-12-26T07:57:21.702Z,11.93
2018-12-26T07:59:51.037Z,13.13
2018-12-26T08:02:20.380Z,15.07
2018-12-26T08:04:49.714Z,11.90
2018-12-26T08:07:19.071Z,11.03
2018-12-26T08:09:47.573Z,11.07
2018-12-26T08:12:16.900Z,11.77
2018-12-26T08:14:46.231Z,11.10
2018-12-26T08:17:14.663Z,12.73
2018-12-26T08:19:44.049Z,11.60
2018-12-26T08:22:12.583Z,14.90
2018-12-26T08:24:41.926Z,12.40
2018-12-26T08:27:11.270Z,13.17
2018-12-26T08:29:40.590Z,14.67
2018-12-26T08:32:09.929Z,13.33
2018-12-26T08:34:39.269Z,10.67
2018-12-26T08:37:07.659Z,10.37
2018-12-26T08:39:36.181Z,11.03
2018-12-26T08:42:05.504Z,9.00
2018-12-26T08:44:34.835Z,10.33
2018-12-26T08:47:04.157Z,9.87
2018-12-26T08:49:33.493Z,12.23
2018-12-26T08:52:02.812Z,11.00
2018-12-26T08:54:32.146Z,11.03
2018-12-26T08:57:01.484Z,9.50
2018-12-26T08:59:30.805Z,10.60
2018-12-26T09:02:00.139Z,9.63
2018-12-26T09:04:28.619Z,11.20
2018-12-26T09:06:57.139Z,10.37
2018-12-26T09:09:26.446Z,9.57
2018-12-26T09:14:49.295Z,9.63
2018-12-26T09:17:17.918Z,10.27
2018-12-26T09:19:47.228Z,12.53
2018-12-26T09:22:16.548Z,11.47
2018-12-26T09:24:45.862Z,12.07
2018-12-26T09:27:15.208Z,12.20
2018-12-26T09:29:44.664Z,10.20
2018-12-26T09:32:14.091Z,11.93
2018-12-26T09:34:43.409Z,11.20
2018-12-26T09:37:11.932Z,10.37
2018-12-26T09:39:40.367Z,11.77
2018-12-26T09:42:09.682Z,11.80
2018-12-26T09:44:39.022Z,10.93
2018-12-26T09:47:08.346Z,13.30
2018-12-26T09:49:37.675Z,8.03
2018-12-26T09:52:06.990Z,11.83
2018-12-26T09:54:36.314Z,13.87
2018-12-26T09:57:05.639Z,13.53
2018-12-26T09:59:35.022Z,15.17
2018-12-26T10:05:07.602Z,11.30
2018-12-26T10:10:29.883Z,9.47
2018-12-26T10:12:59.208Z,9.23
2018-12-26T10:15:28.527Z,10.73
2018-12-26T10:17:57.950Z,10.23
2018-12-26T10:20:27.292Z,10.70
2018-12-26T10:22:56.633Z,10.03
2018-12-26T10:25:25.953Z,14.77
2018-12-26T10:27:55.261Z,9.47
2018-12-26T10:30:23.816Z,10.47
2018-12-26T10:32:52.342Z,12.30
2018-12-26T10:35:21.686Z,10.67
2018-12-26T10:37:51.007Z,10.37
2018-12-26T10:40:20.321Z,7.60
2018-12-26T10:42:49.659Z,7.57
2018-12-26T10:45:18.982Z,7.60
2018-12-26T10:47:48.325Z,5.37
2018-12-26T10:50:16.940Z,7.90
2018-12-26T10:52:45.578Z,7.60
2018-12-26T10:55:14.013Z,7.73
2018-12-26T10:57:43.335Z,8.17
2018-12-26T11:00:13.379Z,8.20
2018-12-26T11:02:42.733Z,7.87
2018-12-26T11:05:12.060Z,6.57
2018-12-26T11:07:41.398Z,7.47
2018-12-26T11:10:10.724Z,7.73
2018-12-26T11:12:40.035Z,9.83
2018-12-26T11:15:09.704Z,8.23
2018-12-26T11:17:38.273Z,7.40
2018-12-26T11:20:10.590Z,6.87
2018-12-26T11:22:39.236Z,7.70
2018-12-26T11:25:07.796Z,9.90
2018-12-26T11:27:37.126Z,8.93
2018-12-26T11:30:06.694Z,8.20
2018-12-26T11:32:35.364Z,7.60
2018-12-26T11:35:04.941Z,9.50
2018-12-26T11:37:34.501Z,9.40
2018-12-26T11:40:05.256Z,10.13
2018-12-26T11:42:33.789Z,6.73
2018-12-26T11:47:46.052Z,6.13
2018-12-26T11:50:15.402Z,7.20
2018-12-26T11:52:44.886Z,8.57
2018-12-26T11:55:14.238Z,6.60
2018-12-26T11:57:43.603Z,7.07
2018-12-26T12:00:12.965Z,8.83
2018-12-26T12:02:41.539Z,5.90
2018-12-26T12:05:10.859Z,5.70
2018-12-26T12:07:39.373Z,6.33
2018-12-26T12:10:08.694Z,6.77
2018-12-26T12:12:38.024Z,6.93
2018-12-26T12:15:07.460Z,4.87
2018-12-26T12:17:36.786Z,5.80
2018-12-26T12:20:08.073Z,6.77
2018-12-26T12:22:36.813Z,5.67
2018-12-26T12:25:06.144Z,6.10
2018-12-26T12:27:34.659Z,6.30
2018-12-26T12:30:04.311Z,6.47
2018-12-26T12:32:32.970Z,7.77
2018-12-26T12:38:05.002Z,5.90
2018-12-26T12:40:33.827Z,7.03
2018-12-26T12:43:02.365Z,7.20
2018-12-26T12:45:31.670Z,6.60
2018-12-26T12:48:00.993Z,7.23
2018-12-26T12:50:41.978Z,7.03
2018-12-26T12:53:10.597Z,6.27
2018-12-26T12:55:41.946Z,7.93
2018-12-26T13:01:12.462Z,5.93
2018-12-26T13:03:46.552Z,7.07
2018-12-26T13:06:31.034Z,5.50
2018-12-26T13:09:19.731Z,6.70
2018-12-26T13:11:49.074Z,5.03
2018-12-26T13:14:18.394Z,5.67
2018-12-26T13:16:47.711Z,7.70
2018-12-26T13:19:16.218Z,5.80
2018-12-26T13:21:44.742Z,5.90
2018-12-26T13:24:13.258Z,5.30
2018-12-26T13:26:42.596Z,7.63
2018-12-26T13:29:12.050Z,5.60
2018-12-26T13:31:41.371Z,5.43
2018-12-26T13:34:10.759Z,5.47
2018-12-26T13:36:40.085Z,6.20
2018-12-26T13:39:09.520Z,6.47
2018-12-26T13:41:38.847Z,5.90
2018-12-26T13:44:07.366Z,5.97
2018-12-26T13:46:35.992Z,5.43
2018-12-26T13:49:05.322Z,6.17
2018-12-26T13:51:33.834Z,6.17
2018-12-26T13:54:03.146Z,9.43
2018-12-26T13:56:32.477Z,7.40
2018-12-26T13:59:01.802Z,5.73
2018-12-26T14:01:31.135Z,5.47
2018-12-26T14:04:00.454Z,5.57
2018-12-26T14:06:28.871Z,8.23
2018-12-26T14:08:58.182Z,5.97
2018-12-26T14:11:26.706Z,10.13
2018-12-26T14:13:56.048Z,9.63
2018-12-26T14:16:24.706Z,8.77
2018-12-26T14:18:54.033Z,10.10
2018-12-26T14:21:23.349Z,7.23
2018-12-26T14:23:52.682Z,7.27
2018-12-26T14:26:21.995Z,8.90
2018-12-26T14:28:51.314Z,8.67
2018-12-26T14:31:19.969Z,8.37
2018-12-26T14:33:48.698Z,10.70
2018-12-26T14:36:17.779Z,11.83
2018-12-26T14:38:47.097Z,9.03
2018-12-26T14:41:16.431Z,9.67
2018-12-26T14:43:45.758Z,9.43
2018-12-26T14:46:15.094Z,8.10
2018-12-26T14:48:43.821Z,11.33
2018-12-26T14:51:12.446Z,9.93
2018-12-26T14:53:41.978Z,11.57
2018-12-26T14:56:11.315Z,12.17
2018-12-26T14:58:39.754Z,10.67
2018-12-26T15:01:09.064Z,9.10
2018-12-26T15:03:38.377Z,12.80
2018-12-26T15:06:07.685Z,13.23
2018-12-26T15:08:37.011Z,13.90
2018-12-26T15:11:06.330Z,16.20
2018-12-26T15:13:35.675Z,15.63
2018-12-26T15:16:05.039Z,13.27
2018-12-26T15:18:33.655Z,13.93
2018-12-26T15:21:02.978Z,12.20
2018-12-26T15:23:31.489Z,15.10
2018-12-26T15:26:00.813Z,14.77
2018-12-26T15:28:30.130Z,14.23
2018-12-26T15:30:59.475Z,14.20
2018-12-26T15:33:28.793Z,16.77
2018-12-26T15:35:58.138Z,13.90
2018-12-26T15:38:26.656Z,15.47
2018-12-26T15:40:55.195Z,13.20
2018-12-26T15:43:24.547Z,15.53
2018-12-26T15:45:53.187Z,16.90
2018-12-26T15:48:22.502Z,16.47
2018-12-26T15:50:51.830Z,14.50
2018-12-26T15:53:21.169Z,16.20
2018-12-26T15:55:50.485Z,15.67
2018-12-26T15:58:19.816Z,18.97
2018-12-26T16:00:48.443Z,21.00
2018-12-26T16:03:17.753Z,19.67
2018-12-26T16:05:46.191Z,19.70
2018-12-26T16:08:14.713Z,18.20
2018-12-26T16:10:44.060Z,17.97
2018-12-26T16:13:13.394Z,18.30
2018-12-26T16:15:42.776Z,18.30
2018-12-26T16:18:12.086Z,18.07
2018-12-26T16:20:41.428Z,17.47
2018-12-26T16:23:10.754Z,18.77
2018-12-26T16:25:40.107Z,18.23
2018-12-26T16:28:09.434Z,16.47
2018-12-26T16:30:45.942Z,18.17
2018-12-26T16:33:27.530Z,20.83
2018-12-26T16:35:56.890Z,21.37
2018-12-26T16:38:26.263Z,23.80
2018-12-26T16:40:55.596Z,23.77
2018-12-26T16:43:24.934Z,20.10
2018-12-26T16:45:54.274Z,18.83
2018-12-26T16:48:23.589Z,16.60
2018-12-26T16:50:52.934Z,16.13
2018-12-26T16:53:21.344Z,17.33
2018-12-26T16:55:50.666Z,17.97
2018-12-26T16:58:19.084Z,19.60
2018-12-26T17:00:55.038Z,19.37
2018-12-26T17:03:37.639Z,19.53
2018-12-26T17:06:07.004Z,19.10
2018-12-26T17:08:36.312Z,16.27
2018-12-26T17:11:05.669Z,17.13
2018-12-26T17:13:34.982Z,18.37
2018-12-26T17:16:04.289Z,18.40
2018-12-26T17:18:33.598Z,19.80
2018-12-26T17:21:02.310Z,19.27
2018-12-26T17:23:30.943Z,18.50
2018-12-26T17:26:00.286Z,16.83
2018-12-26T17:28:29.597Z,21.40
2018-12-26T17:31:04.156Z,19.33
2018-12-26T17:33:48.182Z,18.63
2018-12-26T17:36:17.529Z,22.80
2018-12-26T17:38:46.855Z,15.90
2018-12-26T17:41:16.183Z,18.03
2018-12-26T17:43:45.498Z,18.33
2018-12-26T17:46:14.044Z,18.87
2018-12-26T17:48:43.360Z,19.00
2018-12-26T17:51:16.206Z,18.37
2018-12-26T17:54:24.260Z,18.07
2018-12-26T17:57:31.514Z,14.70
2018-12-26T18:00:25.276Z,16.03
2018-12-26T18:02:54.593Z,15.57
2018-12-26T18:05:23.209Z,17.10
2018-12-26T18:07:52.557Z,17.27
2018-12-26T18:10:21.900Z,14.43
2018-12-26T18:12:51.241Z,18.53
2018-12-26T18:15:20.541Z,15.50
2018-12-26T18:20:43.510Z,13.83
2018-12-26T18:23:12.850Z,16.37
2018-12-26T18:25:42.187Z,15.23
2018-12-26T18:28:11.556Z,17.80
2018-12-26T18:30:40.085Z,20.90
2018-12-26T18:33:09.425Z,19.50
2018-12-26T18:36:16.673Z,18.90
2018-12-26T18:38:45.214Z,20.97
2018-12-26T18:41:14.555Z,14.57
2018-12-26T18:43:43.879Z,15.37
2018-12-26T18:46:13.199Z,16.00
2018-12-26T18:48:42.548Z,16.83
2018-12-26T18:51:11.861Z,15.80
2018-12-26T18:53:41.196Z,18.37
2018-12-26T18:56:09.649Z,18.23
2018-12-26T18:58:38.485Z,15.43
2018-12-26T19:01:07.023Z,17.27
2018-12-26T19:03:36.349Z,19.90
2018-12-26T19:06:05.718Z,14.97
2018-12-26T19:08:35.029Z,16.23
2018-12-26T19:11:04.376Z,17.30
2018-12-26T19:13:33.712Z,16.17
2018-12-26T19:16:03.044Z,17.00
2018-12-26T19:18:32.340Z,18.03
2018-12-26T19:21:00.865Z,19.13
2018-12-26T19:23:29.382Z,20.20
2018-12-26T19:25:58.736Z,20.13
2018-12-26T19:28:28.062Z,20.70
2018-12-26T19:30:57.392Z,16.47
2018-12-26T19:33:26.720Z,14.27
2018-12-26T19:35:56.064Z,21.87
2018-12-26T19:38:24.677Z,16.17
2018-12-26T19:40:54.018Z,22.77
2018-12-26T19:43:22.679Z,17.63
2018-12-26T19:45:52.022Z,16.10
2018-12-26T19:48:21.352Z,17.43
2018-12-26T19:50:49.875Z,15.83
2018-12-26T19:53:19.203Z,17.20
2018-12-26T19:55:48.534Z,15.80
2018-12-26T19:58:17.895Z,15.43
2018-12-26T20:00:47.246Z,16.50
2018-12-26T20:03:16.602Z,16.43
2018-12-26T20:05:45.937Z,18.73
2018-12-26T20:08:14.449Z,16.53
2018-12-26T20:10:43.370Z,14.37
2018-12-26T20:13:12.818Z,16.23
2018-12-26T20:15:42.687Z,15.00
2018-12-26T20:18:12.024Z,13.37
2018-12-26T20:20:41.338Z,14.80
2018-12-26T20:23:10.662Z,10.97
2018-12-26T20:25:39.970Z,14.40
2018-12-26T20:28:09.307Z,14.10
2018-12-26T20:30:38.632Z,14.43
2018-12-26T20:33:07.972Z,13.07
2018-12-26T20:35:37.305Z,13.00
2018-12-26T20:38:05.857Z,13.67
2018-12-26T20:40:35.186Z,11.30
2018-12-26T20:43:03.725Z,16.80
2018-12-26T20:45:33.149Z,15.00
2018-12-26T20:48:02.518Z,15.83
2018-12-26T20:50:31.906Z,13.10
2018-12-26T20:53:01.193Z,13.83
2018-12-26T20:55:30.525Z,15.20
2018-12-26T20:57:59.844Z,11.93
2018-12-26T21:00:29.164Z,14.67
2018-12-26T21:02:57.789Z,14.33
2018-12-26T21:05:26.224Z,19.10
2018-12-26T21:07:55.562Z,13.03
2018-12-26T21:10:24.893Z,14.17
2018-12-26T21:12:54.229Z,15.50
2018-12-26T21:15:23.541Z,18.23
2018-12-26T21:17:52.879Z,14.50
2018-12-26T21:20:22.202Z,15.57
2018-12-26T21:22:51.519Z,14.70
2018-12-26T21:25:20.842Z,12.53
2018-12-26T21:27:49.386Z,11.67
2018-12-26T21:30:18.015Z,17.37
2018-12-26T21:32:47.350Z,13.50
2018-12-26T21:35:16.665Z,14.63
2018-12-26T21:37:46.019Z,13.10
2018-12-26T21:40:15.351Z,14.87
2018-12-26T21:42:44.669Z,14.70
2018-12-26T21:45:14.014Z,13.43
2018-12-26T21:47:43.332Z,14.83
2018-12-26T21:50:12.685Z,13.20
2018-12-26T21:52:42.025Z,13.87
2018-12-26T21:55:10.548Z,13.70
2018-12-26T21:57:39.079Z,14.00
2018-12-26T22:00:08.972Z,12.50
2018-12-26T22:02:38.293Z,12.60
2018-12-26T22:05:07.629Z,14.47
2018-12-26T22:07:36.956Z,13.90
2018-12-26T22:10:06.328Z,13.53
2018-12-26T22:12:35.672Z,12.93
2018-12-26T22:15:05.326Z,11.73
2018-12-26T22:17:34.047Z,14.23
2018-12-26T22:20:02.571Z,15.93
2018-12-26T22:22:31.191Z,14.20
2018-12-26T22:25:00.506Z,14.73
2018-12-26T22:27:29.858Z,15.60
2018-12-26T22:29:59.167Z,14.70
2018-12-26T22:32:30.715Z,14.83
2018-12-26T22:35:17.738Z,15.00
2018-12-26T22:37:47.066Z,10.90
2018-12-26T22:40:16.407Z,14.30
2018-12-26T22:42:44.938Z,14.60
2018-12-26T22:45:14.261Z,13.73
2018-12-26T22:47:42.891Z,13.87
2018-12-26T22:50:12.220Z,14.63
2018-12-26T22:52:41.555Z,11.67
2018-12-26T22:55:10.895Z,13.97
2018-12-26T22:57:40.224Z,11.47
2018-12-26T23:03:12.279Z,11.53
2018-12-26T23:05:42.006Z,11.40
2018-12-26T23:08:10.517Z,9.63
2018-12-26T23:10:39.854Z,9.83
2018-12-26T23:13:09.180Z,12.63
2018-12-26T23:15:38.484Z,12.80
2018-12-26T23:18:06.999Z,12.87
2018-12-26T23:20:35.541Z,14.07
2018-12-26T23:23:04.881Z,11.90
2018-12-26T23:25:34.215Z,11.23
2018-12-26T23:28:03.536Z,11.63
2018-12-26T23:30:32.910Z,11.33
2018-12-26T23:33:02.242Z,11.60
2018-12-26T23:35:31.870Z,8.90
2018-12-26T23:38:03.415Z,11.20
2018-12-26T23:40:32.721Z,11.27
2018-12-26T23:43:02.047Z,12.73
2018-12-26T23:45:31.371Z,11.13
2018-12-26T23:48:00.704Z,11.57
2018-12-26T23:50:30.117Z,11.60
2018-12-26T23:52:58.647Z,12.10
2018-12-26T23:55:27.175Z,9.60
2018-12-26T23:57:56.503Z,12.13
